sensor_id;sensor_type;location;lat;lon;timestamp;pressure;altitude;pressure_sealevel;temperature;humidity
64095;BME280;50353;51.420;5.682;2023-08-24T00:01:49;101527.03;;;17.62;97.40
64095;BME280;50353;51.420;5.682;2023-08-24T00:04:14;101517.41;;;17.70;97.58
64095;BME280;50353;51.420;5.682;2023-08-24T00:06:40;101516.69;;;17.46;97.87
64095;BME280;50353;51.420;5.682;2023-08-24T00:09:05;101517.78;;;17.32;98.78
64095;BME280;50353;51.420;5.682;2023-08-24T00:11:31;101518.50;;;17.68;96.87
64095;BME280;50353;51.420;5.682;2023-08-24T00:13:56;101522.16;;;17.67;96.71
64095;BME280;50353;51.420;5.682;2023-08-24T00:16:22;101516.09;;;17.53;97.08
64095;BME280;50353;51.420;5.682;2023-08-24T00:18:47;101520.16;;;17.12;98.89
64095;BME280;50353;51.420;5.682;2023-08-24T00:21:13;101529.31;;;17.32;98.57
64095;BME280;50353;51.420;5.682;2023-08-24T00:23:41;101527.47;;;17.33;98.08
64095;BME280;50353;51.420;5.682;2023-08-24T00:26:07;101523.59;;;17.14;98.76
64095;BME280;50353;51.420;5.682;2023-08-24T00:28:32;101520.84;;;16.92;99.31
64095;BME280;50353;51.420;5.682;2023-08-24T00:30:57;101507.44;;;17.16;98.66
64095;BME280;50353;51.420;5.682;2023-08-24T00:33:22;101510.56;;;17.10;100.00
64095;BME280;50353;51.420;5.682;2023-08-24T00:35:48;101519.72;;;17.30;99.35
64095;BME280;50353;51.420;5.682;2023-08-24T00:38:13;101511.94;;;17.15;98.49
64095;BME280;50353;51.420;5.682;2023-08-24T00:40:41;101507.44;;;16.80;100.00
64095;BME280;50353;51.420;5.682;2023-08-24T00:43:07;101495.41;;;16.99;100.00
64095;BME280;50353;51.420;5.682;2023-08-24T00:45:32;101493.59;;;16.86;100.00
64095;BME280;50353;51.420;5.682;2023-08-24T00:47:58;101493.44;;;17.12;99.74
64095;BME280;50353;51.420;5.682;2023-08-24T00:50:24;101488.03;;;17.25;99.49
64095;BME280;50353;51.420;5.682;2023-08-24T00:52:49;101485.69;;;17.20;99.19
64095;BME280;50353;51.420;5.682;2023-08-24T00:55:15;101482.94;;;17.22;99.35
64095;BME280;50353;51.420;5.682;2023-08-24T00:57:41;101493.25;;;17.27;98.76
64095;BME280;50353;51.420;5.682;2023-08-24T01:00:07;101489.34;;;17.31;98.55
64095;BME280;50353;51.420;5.682;2023-08-24T01:02:39;101486.69;;;17.19;98.98
64095;BME280;50353;51.420;5.682;2023-08-24T01:05:05;101487.88;;;17.38;98.79
64095;BME280;50353;51.420;5.682;2023-08-24T01:07:31;101492.66;;;17.68;97.84
64095;BME280;50353;51.420;5.682;2023-08-24T01:09:57;101493.47;;;17.46;99.02
64095;BME280;50353;51.420;5.682;2023-08-24T01:12:32;101488.84;;;17.03;100.00
64095;BME280;50353;51.420;5.682;2023-08-24T01:15:07;101486.56;;;17.21;100.00
64095;BME280;50353;51.420;5.682;2023-08-24T01:17:35;101496.03;;;17.25;100.00
64095;BME280;50353;51.420;5.682;2023-08-24T01:20:04;101487.41;;;17.33;99.34
64095;BME280;50353;51.420;5.682;2023-08-24T01:22:55;101491.28;;;17.29;99.02
64095;BME280;50353;51.420;5.682;2023-08-24T01:25:42;101475.84;;;17.10;99.80
64095;BME280;50353;51.420;5.682;2023-08-24T01:28:08;101471.97;;;17.36;100.00
64095;BME280;50353;51.420;5.682;2023-08-24T01:30:34;101470.44;;;16.87;100.00
64095;BME280;50353;51.420;5.682;2023-08-24T01:33:03;101477.56;;;16.75;100.00
64095;BME280;50353;51.420;5.682;2023-08-24T01:35:30;101486.50;;;16.98;100.00
64095;BME280;50353;51.420;5.682;2023-08-24T01:37:55;101484.22;;;17.05;100.00
64095;BME280;50353;51.420;5.682;2023-08-24T01:40:36;101474.59;;;16.91;100.00
64095;BME280;50353;51.420;5.682;2023-08-24T01:43:07;101465.78;;;17.02;100.00
64095;BME280;50353;51.420;5.682;2023-08-24T01:45:34;101476.31;;;16.92;100.00
64095;BME280;50353;51.420;5.682;2023-08-24T01:48:02;101458.50;;;17.15;100.00
64095;BME280;50353;51.420;5.682;2023-08-24T01:50:29;101461.50;;;16.99;100.00
64095;BME280;50353;51.420;5.682;2023-08-24T01:52:55;101453.03;;;16.70;100.00
64095;BME280;50353;51.420;5.682;2023-08-24T01:55:20;101469.78;;;16.96;100.00
64095;BME280;50353;51.420;5.682;2023-08-24T01:57:46;101473.31;;;17.31;100.00
64095;BME280;50353;51.420;5.682;2023-08-24T02:00:12;101474.16;;;17.31;100.00
64095;BME280;50353;51.420;5.682;2023-08-24T02:02:37;101469.56;;;17.33;100.00
64095;BME280;50353;51.420;5.682;2023-08-24T02:05:03;101465.53;;;17.05;100.00
64095;BME280;50353;51.420;5.682;2023-08-24T02:07:28;101467.81;;;17.10;100.00
64095;BME280;50353;51.420;5.682;2023-08-24T02:09:54;101478.03;;;17.27;100.00
64095;BME280;50353;51.420;5.682;2023-08-24T02:12:19;101475.03;;;17.43;100.00
64095;BME280;50353;51.420;5.682;2023-08-24T02:14:44;101472.94;;;17.24;100.00
64095;BME280;50353;51.420;5.682;2023-08-24T02:17:10;101473.78;;;17.24;100.00
64095;BME280;50353;51.420;5.682;2023-08-24T02:19:35;101465.06;;;17.34;100.00
64095;BME280;50353;51.420;5.682;2023-08-24T02:22:00;101454.84;;;17.39;100.00
64095;BME280;50353;51.420;5.682;2023-08-24T02:24:25;101450.13;;;17.20;100.00
64095;BME280;50353;51.420;5.682;2023-08-24T02:26:51;101445.75;;;17.30;100.00
64095;BME280;50353;51.420;5.682;2023-08-24T02:29:16;101456.06;;;17.46;100.00
64095;BME280;50353;51.420;5.682;2023-08-24T02:31:42;101457.16;;;17.44;100.00
64095;BME280;50353;51.420;5.682;2023-08-24T02:34:07;101447.81;;;17.49;100.00
64095;BME280;50353;51.420;5.682;2023-08-24T02:36:32;101452.28;;;17.49;100.00
64095;BME280;50353;51.420;5.682;2023-08-24T02:38:59;101454.38;;;17.56;100.00
64095;BME280;50353;51.420;5.682;2023-08-24T02:41:25;101454.09;;;17.71;100.00
64095;BME280;50353;51.420;5.682;2023-08-24T02:43:50;101452.53;;;17.57;100.00
64095;BME280;50353;51.420;5.682;2023-08-24T02:46:15;101446.59;;;17.53;100.00
64095;BME280;50353;51.420;5.682;2023-08-24T02:48:41;101451.31;;;17.72;100.00
64095;BME280;50353;51.420;5.682;2023-08-24T02:51:07;101446.09;;;17.60;100.00
64095;BME280;50353;51.420;5.682;2023-08-24T02:53:33;101449.63;;;17.60;100.00
64095;BME280;50353;51.420;5.682;2023-08-24T02:55:58;101443.63;;;17.79;100.00
64095;BME280;50353;51.420;5.682;2023-08-24T02:58:24;101435.50;;;17.81;100.00
64095;BME280;50353;51.420;5.682;2023-08-24T03:00:49;101442.91;;;18.00;100.00
64095;BME280;50353;51.420;5.682;2023-08-24T03:03:15;101449.09;;;18.00;100.00
64095;BME280;50353;51.420;5.682;2023-08-24T03:05:41;101436.53;;;18.01;100.00
64095;BME280;50353;51.420;5.682;2023-08-24T03:08:07;101437.09;;;18.27;100.00
64095;BME280;50353;51.420;5.682;2023-08-24T03:10:35;101427.72;;;18.21;100.00
64095;BME280;50353;51.420;5.682;2023-08-24T03:13:00;101417.06;;;18.10;100.00
64095;BME280;50353;51.420;5.682;2023-08-24T03:15:26;101412.72;;;17.98;100.00
64095;BME280;50353;51.420;5.682;2023-08-24T03:17:51;101404.16;;;18.15;100.00
64095;BME280;50353;51.420;5.682;2023-08-24T03:20:18;101399.78;;;18.14;100.00
64095;BME280;50353;51.420;5.682;2023-08-24T03:22:43;101377.66;;;18.12;100.00
64095;BME280;50353;51.420;5.682;2023-08-24T03:25:09;101367.66;;;17.93;100.00
64095;BME280;50353;51.420;5.682;2023-08-24T03:27:34;101365.97;;;17.81;100.00
64095;BME280;50353;51.420;5.682;2023-08-24T03:30:00;101353.31;;;17.83;100.00
64095;BME280;50353;51.420;5.682;2023-08-24T03:32:25;101348.91;;;17.82;100.00
64095;BME280;50353;51.420;5.682;2023-08-24T03:34:50;101360.41;;;17.72;100.00
64095;BME280;50353;51.420;5.682;2023-08-24T03:37:15;101363.75;;;17.97;100.00
64095;BME280;50353;51.420;5.682;2023-08-24T03:39:41;101353.56;;;17.80;100.00
64095;BME280;50353;51.420;5.682;2023-08-24T03:42:06;101340.28;;;17.89;100.00
64095;BME280;50353;51.420;5.682;2023-08-24T03:44:32;101339.09;;;17.82;100.00
64095;BME280;50353;51.420;5.682;2023-08-24T03:46:57;101330.78;;;17.97;100.00
64095;BME280;50353;51.420;5.682;2023-08-24T03:49:23;101315.06;;;18.03;100.00
64095;BME280;50353;51.420;5.682;2023-08-24T03:51:48;101295.63;;;18.01;100.00
64095;BME280;50353;51.420;5.682;2023-08-24T03:54:13;101276.50;;;18.06;100.00
64095;BME280;50353;51.420;5.682;2023-08-24T03:56:39;101271.22;;;17.95;100.00
64095;BME280;50353;51.420;5.682;2023-08-24T03:59:04;101255.88;;;17.97;100.00
64095;BME280;50353;51.420;5.682;2023-08-24T04:01:30;101244.53;;;17.83;100.00
64095;BME280;50353;51.420;5.682;2023-08-24T04:03:55;101237.16;;;17.97;100.00
64095;BME280;50353;51.420;5.682;2023-08-24T04:06:20;101238.41;;;17.93;100.00
64095;BME280;50353;51.420;5.682;2023-08-24T04:08:46;101233.25;;;18.01;100.00
64095;BME280;50353;51.420;5.682;2023-08-24T04:11:11;101250.34;;;18.10;100.00
64095;BME280;50353;51.420;5.682;2023-08-24T04:13:36;101244.81;;;18.01;100.00
64095;BME280;50353;51.420;5.682;2023-08-24T04:16:01;101246.81;;;18.09;100.00
64095;BME280;50353;51.420;5.682;2023-08-24T04:18:29;101250.03;;;18.03;100.00
64095;BME280;50353;51.420;5.682;2023-08-24T04:20:54;101241.25;;;18.01;100.00
64095;BME280;50353;51.420;5.682;2023-08-24T04:23:24;101231.75;;;18.08;100.00
64095;BME280;50353;51.420;5.682;2023-08-24T04:25:54;101234.44;;;18.08;100.00
64095;BME280;50353;51.420;5.682;2023-08-24T04:28:20;101239.38;;;18.13;100.00
64095;BME280;50353;51.420;5.682;2023-08-24T04:30:56;101251.66;;;18.15;100.00
64095;BME280;50353;51.420;5.682;2023-08-24T04:33:22;101257.44;;;18.20;100.00
64095;BME280;50353;51.420;5.682;2023-08-24T04:35:48;101261.94;;;18.20;100.00
64095;BME280;50353;51.420;5.682;2023-08-24T04:38:18;101270.88;;;18.30;100.00
64095;BME280;50353;51.420;5.682;2023-08-24T04:40:54;101272.03;;;18.37;100.00
64095;BME280;50353;51.420;5.682;2023-08-24T04:43:22;101282.00;;;18.26;100.00
64095;BME280;50353;51.420;5.682;2023-08-24T04:45:49;101273.69;;;18.29;100.00
64095;BME280;50353;51.420;5.682;2023-08-24T04:48:15;101287.91;;;18.29;100.00
64095;BME280;50353;51.420;5.682;2023-08-24T04:50:44;101290.78;;;18.37;100.00
64095;BME280;50353;51.420;5.682;2023-08-24T04:53:11;101288.22;;;18.36;100.00
64095;BME280;50353;51.420;5.682;2023-08-24T04:55:37;101286.09;;;18.30;100.00
64095;BME280;50353;51.420;5.682;2023-08-24T04:58:02;101279.31;;;18.26;100.00
64095;BME280;50353;51.420;5.682;2023-08-24T05:00:28;101279.97;;;18.18;100.00
64095;BME280;50353;51.420;5.682;2023-08-24T05:02:53;101273.47;;;18.11;100.00
64095;BME280;50353;51.420;5.682;2023-08-24T05:05:18;101277.09;;;18.10;100.00
64095;BME280;50353;51.420;5.682;2023-08-24T05:07:44;101284.66;;;18.04;100.00
64095;BME280;50353;51.420;5.682;2023-08-24T05:10:09;101280.47;;;18.12;100.00
64095;BME280;50353;51.420;5.682;2023-08-24T05:12:34;101281.53;;;18.20;100.00
64095;BME280;50353;51.420;5.682;2023-08-24T05:15:04;101279.84;;;18.19;100.00
64095;BME280;50353;51.420;5.682;2023-08-24T05:17:29;101281.72;;;18.29;100.00
64095;BME280;50353;51.420;5.682;2023-08-24T05:19:56;101282.56;;;18.29;100.00
64095;BME280;50353;51.420;5.682;2023-08-24T05:22:22;101285.66;;;18.24;100.00
64095;BME280;50353;51.420;5.682;2023-08-24T05:24:47;101290.88;;;18.26;100.00
64095;BME280;50353;51.420;5.682;2023-08-24T05:27:12;101290.50;;;18.40;100.00
64095;BME280;50353;51.420;5.682;2023-08-24T05:29:38;101291.88;;;18.35;100.00
64095;BME280;50353;51.420;5.682;2023-08-24T05:32:03;101298.53;;;18.40;100.00
64095;BME280;50353;51.420;5.682;2023-08-24T05:34:28;101299.41;;;18.41;100.00
64095;BME280;50353;51.420;5.682;2023-08-24T05:36:54;101284.59;;;18.37;100.00
64095;BME280;50353;51.420;5.682;2023-08-24T05:39:19;101301.53;;;18.47;100.00
64095;BME280;50353;51.420;5.682;2023-08-24T05:41:44;101295.41;;;18.66;100.00
64095;BME280;50353;51.420;5.682;2023-08-24T05:44:09;101299.84;;;18.77;100.00
64095;BME280;50353;51.420;5.682;2023-08-24T05:46:35;101298.56;;;18.71;100.00
64095;BME280;50353;51.420;5.682;2023-08-24T05:49:00;101300.22;;;18.63;100.00
64095;BME280;50353;51.420;5.682;2023-08-24T05:51:25;101284.78;;;18.45;100.00
64095;BME280;50353;51.420;5.682;2023-08-24T05:53:51;101262.25;;;18.48;100.00
64095;BME280;50353;51.420;5.682;2023-08-24T05:56:21;101255.13;;;18.68;100.00
64095;BME280;50353;51.420;5.682;2023-08-24T05:58:47;101263.63;;;18.42;100.00
64095;BME280;50353;51.420;5.682;2023-08-24T06:01:12;101259.63;;;18.67;100.00
64095;BME280;50353;51.420;5.682;2023-08-24T06:03:37;101247.06;;;18.99;100.00
64095;BME280;50353;51.420;5.682;2023-08-24T06:06:03;101247.25;;;19.17;100.00
64095;BME280;50353;51.420;5.682;2023-08-24T06:08:29;101238.13;;;19.49;99.10
64095;BME280;50353;51.420;5.682;2023-08-24T06:10:55;101236.97;;;19.32;97.64
64095;BME280;50353;51.420;5.682;2023-08-24T06:13:20;101232.03;;;19.76;96.69
64095;BME280;50353;51.420;5.682;2023-08-24T06:15:45;101223.81;;;20.07;95.18
64095;BME280;50353;51.420;5.682;2023-08-24T06:18:10;101227.25;;;19.89;94.56
64095;BME280;50353;51.420;5.682;2023-08-24T06:20:36;101218.03;;;20.02;95.44
64095;BME280;50353;51.420;5.682;2023-08-24T06:23:01;101213.22;;;20.05;94.94
64095;BME280;50353;51.420;5.682;2023-08-24T06:25:27;101206.66;;;20.55;92.67
64095;BME280;50353;51.420;5.682;2023-08-24T06:27:53;101205.84;;;20.55;90.59
64095;BME280;50353;51.420;5.682;2023-08-24T06:30:18;101212.38;;;20.80;90.72
64095;BME280;50353;51.420;5.682;2023-08-24T06:32:44;101213.41;;;20.69;88.98
64095;BME280;50353;51.420;5.682;2023-08-24T06:35:10;101213.72;;;21.12;86.46
64095;BME280;50353;51.420;5.682;2023-08-24T06:37:39;101221.47;;;21.51;85.13
64095;BME280;50353;51.420;5.682;2023-08-24T06:40:05;101224.25;;;21.59;82.11
64095;BME280;50353;51.420;5.682;2023-08-24T06:42:30;101222.41;;;22.04;82.96
64095;BME280;50353;51.420;5.682;2023-08-24T06:44:56;101216.16;;;22.30;79.88
64095;BME280;50353;51.420;5.682;2023-08-24T06:47:21;101222.53;;;22.29;78.40
64095;BME280;50353;51.420;5.682;2023-08-24T06:49:46;101223.94;;;22.68;77.49
64095;BME280;50353;51.420;5.682;2023-08-24T06:52:12;101222.09;;;22.76;77.87
64095;BME280;50353;51.420;5.682;2023-08-24T06:54:37;101219.31;;;23.03;75.28
64095;BME280;50353;51.420;5.682;2023-08-24T06:57:02;101224.09;;;23.17;74.53
64095;BME280;50353;51.420;5.682;2023-08-24T06:59:29;101222.69;;;22.96;74.42
64095;BME280;50353;51.420;5.682;2023-08-24T07:01:54;101225.66;;;23.44;71.87
64095;BME280;50353;51.420;5.682;2023-08-24T07:04:19;101234.75;;;23.43;72.89
64095;BME280;50353;51.420;5.682;2023-08-24T07:06:44;101220.78;;;23.65;74.17
64095;BME280;50353;51.420;5.682;2023-08-24T07:09:10;101213.00;;;23.86;70.77
64095;BME280;50353;51.420;5.682;2023-08-24T07:11:35;101220.78;;;23.48;71.31
64095;BME280;50353;51.420;5.682;2023-08-24T07:14:01;101220.53;;;24.16;71.61
64095;BME280;50353;51.420;5.682;2023-08-24T07:16:26;101212.13;;;24.02;69.56
64095;BME280;50353;51.420;5.682;2023-08-24T07:18:51;101214.66;;;23.95;70.57
64095;BME280;50353;51.420;5.682;2023-08-24T07:21:16;101216.34;;;24.05;69.14
64095;BME280;50353;51.420;5.682;2023-08-24T07:23:42;101208.56;;;24.10;68.51
64095;BME280;50353;51.420;5.682;2023-08-24T07:26:08;101201.31;;;24.19;69.00
64095;BME280;50353;51.420;5.682;2023-08-24T07:28:34;101210.81;;;24.54;67.77
64095;BME280;50353;51.420;5.682;2023-08-24T07:31:07;101208.38;;;24.68;65.62
64095;BME280;50353;51.420;5.682;2023-08-24T07:33:32;101206.31;;;25.33;64.95
64095;BME280;50353;51.420;5.682;2023-08-24T07:35:57;101209.81;;;24.87;65.74
64095;BME280;50353;51.420;5.682;2023-08-24T07:38:23;101206.53;;;25.00;64.89
64095;BME280;50353;51.420;5.682;2023-08-24T07:40:48;101201.31;;;25.21;64.80
64095;BME280;50353;51.420;5.682;2023-08-24T07:43:13;101195.72;;;25.23;64.25
64095;BME280;50353;51.420;5.682;2023-08-24T07:45:38;101199.06;;;25.25;63.39
64095;BME280;50353;51.420;5.682;2023-08-24T07:48:05;101208.16;;;25.09;64.38
64095;BME280;50353;51.420;5.682;2023-08-24T07:50:31;101205.41;;;25.17;63.14
64095;BME280;50353;51.420;5.682;2023-08-24T07:52:57;101199.38;;;25.07;63.86
64095;BME280;50353;51.420;5.682;2023-08-24T07:55:22;101188.34;;;25.40;65.31
64095;BME280;50353;51.420;5.682;2023-08-24T07:57:48;101185.34;;;25.35;64.62
64095;BME280;50353;51.420;5.682;2023-08-24T08:00:14;101184.47;;;25.57;64.35
64095;BME280;50353;51.420;5.682;2023-08-24T08:02:40;101181.31;;;24.76;64.96
64095;BME280;50353;51.420;5.682;2023-08-24T08:05:06;101181.31;;;25.69;64.68
64095;BME280;50353;51.420;5.682;2023-08-24T08:07:32;101183.41;;;25.43;64.88
64095;BME280;50353;51.420;5.682;2023-08-24T08:09:57;101189.63;;;25.67;64.57
64095;BME280;50353;51.420;5.682;2023-08-24T08:12:23;101189.56;;;25.29;67.34
64095;BME280;50353;51.420;5.682;2023-08-24T08:14:48;101175.47;;;25.80;64.83
64095;BME280;50353;51.420;5.682;2023-08-24T08:17:14;101173.78;;;25.79;66.44
64095;BME280;50353;51.420;5.682;2023-08-24T08:19:39;101179.97;;;26.03;65.61
64095;BME280;50353;51.420;5.682;2023-08-24T08:22:04;101198.13;;;25.64;65.00
64095;BME280;50353;51.420;5.682;2023-08-24T08:24:30;101194.00;;;26.06;63.75
64095;BME280;50353;51.420;5.682;2023-08-24T08:26:55;101179.53;;;26.14;65.59
64095;BME280;50353;51.420;5.682;2023-08-24T08:29:21;101187.16;;;26.40;62.73
64095;BME280;50353;51.420;5.682;2023-08-24T08:31:46;101178.22;;;26.10;62.50
64095;BME280;50353;51.420;5.682;2023-08-24T08:34:11;101170.06;;;26.40;62.75
64095;BME280;50353;51.420;5.682;2023-08-24T08:36:37;101161.19;;;26.16;64.98
64095;BME280;50353;51.420;5.682;2023-08-24T08:39:02;101167.34;;;25.80;69.27
64095;BME280;50353;51.420;5.682;2023-08-24T08:41:33;101150.41;;;25.78;65.93
64095;BME280;50353;51.420;5.682;2023-08-24T08:44:04;101148.09;;;25.75;65.32
64095;BME280;50353;51.420;5.682;2023-08-24T08:46:31;101152.09;;;25.64;66.70
64095;BME280;50353;51.420;5.682;2023-08-24T08:48:59;101142.69;;;26.35;65.92
64095;BME280;50353;51.420;5.682;2023-08-24T08:51:25;101129.94;;;26.50;67.49
64095;BME280;50353;51.420;5.682;2023-08-24T08:53:50;101122.91;;;25.89;63.87
64095;BME280;50353;51.420;5.682;2023-08-24T08:56:16;101115.34;;;26.51;67.25
64095;BME280;50353;51.420;5.682;2023-08-24T08:58:42;101100.38;;;26.55;63.98
64095;BME280;50353;51.420;5.682;2023-08-24T09:01:08;101085.59;;;26.21;63.81
64095;BME280;50353;51.420;5.682;2023-08-24T09:03:34;101083.63;;;26.15;65.82
64095;BME280;50353;51.420;5.682;2023-08-24T09:06:00;101076.38;;;25.86;65.79
64095;BME280;50353;51.420;5.682;2023-08-24T09:08:26;101074.59;;;26.08;65.70
64095;BME280;50353;51.420;5.682;2023-08-24T09:10:53;101053.75;;;26.23;64.46
64095;BME280;50353;51.420;5.682;2023-08-24T09:13:19;101054.59;;;26.24;66.08
64095;BME280;50353;51.420;5.682;2023-08-24T09:15:44;101046.47;;;26.09;65.70
64095;BME280;50353;51.420;5.682;2023-08-24T09:18:09;101039.34;;;26.23;65.58
64095;BME280;50353;51.420;5.682;2023-08-24T09:20:35;101032.53;;;26.12;64.67
64095;BME280;50353;51.420;5.682;2023-08-24T09:23:00;101021.03;;;26.25;66.62
64095;BME280;50353;51.420;5.682;2023-08-24T09:25:26;101023.69;;;26.61;64.46
64095;BME280;50353;51.420;5.682;2023-08-24T09:27:59;101022.03;;;27.10;64.75
64095;BME280;50353;51.420;5.682;2023-08-24T09:30:31;101017.78;;;26.73;64.40
64095;BME280;50353;51.420;5.682;2023-08-24T09:33:01;101017.88;;;26.43;64.31
64095;BME280;50353;51.420;5.682;2023-08-24T09:35:27;101036.50;;;27.18;62.60
64095;BME280;50353;51.420;5.682;2023-08-24T09:37:53;101040.88;;;27.19;63.71
64095;BME280;50353;51.420;5.682;2023-08-24T09:40:23;101049.56;;;27.07;63.68
64095;BME280;50353;51.420;5.682;2023-08-24T09:42:49;101054.88;;;27.44;62.94
64095;BME280;50353;51.420;5.682;2023-08-24T09:45:15;101081.50;;;27.05;64.66
64095;BME280;50353;51.420;5.682;2023-08-24T09:47:45;101085.63;;;27.29;61.46
64095;BME280;50353;51.420;5.682;2023-08-24T09:50:11;101092.91;;;27.22;63.39
64095;BME280;50353;51.420;5.682;2023-08-24T09:52:37;101105.03;;;27.26;62.78
64095;BME280;50353;51.420;5.682;2023-08-24T09:55:09;101105.44;;;27.23;62.89
64095;BME280;50353;51.420;5.682;2023-08-24T09:57:37;101101.59;;;27.11;65.73
64095;BME280;50353;51.420;5.682;2023-08-24T10:00:05;101101.53;;;26.46;65.28
64095;BME280;50353;51.420;5.682;2023-08-24T10:02:37;101107.47;;;26.93;63.24
64095;BME280;50353;51.420;5.682;2023-08-24T10:05:06;101100.16;;;26.93;63.83
64095;BME280;50353;51.420;5.682;2023-08-24T10:07:32;101105.59;;;26.93;66.10
64095;BME280;50353;51.420;5.682;2023-08-24T10:10:07;101109.59;;;26.97;65.04
64095;BME280;50353;51.420;5.682;2023-08-24T10:12:41;101117.75;;;26.97;63.31
64095;BME280;50353;51.420;5.682;2023-08-24T10:15:07;101127.78;;;27.04;62.79
64095;BME280;50353;51.420;5.682;2023-08-24T10:17:33;101116.84;;;26.90;65.84
64095;BME280;50353;51.420;5.682;2023-08-24T10:20:02;101124.56;;;26.72;63.46
64095;BME280;50353;51.420;5.682;2023-08-24T10:22:31;101112.41;;;26.68;64.15
64095;BME280;50353;51.420;5.682;2023-08-24T10:24:56;101104.78;;;26.56;63.83
64095;BME280;50353;51.420;5.682;2023-08-24T10:27:27;101090.38;;;26.56;64.04
64095;BME280;50353;51.420;5.682;2023-08-24T10:29:52;101084.75;;;26.57;64.35
64095;BME280;50353;51.420;5.682;2023-08-24T10:32:19;101080.31;;;26.49;65.00
64095;BME280;50353;51.420;5.682;2023-08-24T10:34:46;101099.47;;;26.48;66.30
64095;BME280;50353;51.420;5.682;2023-08-24T10:37:12;101115.59;;;26.35;67.17
64095;BME280;50353;51.420;5.682;2023-08-24T10:39:44;101117.63;;;26.32;67.91
64095;BME280;50353;51.420;5.682;2023-08-24T10:42:13;101120.53;;;26.01;68.59
64095;BME280;50353;51.420;5.682;2023-08-24T10:44:40;101122.78;;;25.68;68.25
64095;BME280;50353;51.420;5.682;2023-08-24T10:47:21;101129.22;;;25.81;68.69
64095;BME280;50353;51.420;5.682;2023-08-24T10:54:48;101151.59;;;25.60;72.54
64095;BME280;50353;51.420;5.682;2023-08-24T10:57:23;101164.31;;;25.60;73.74
64095;BME280;50353;51.420;5.682;2023-08-24T11:02:45;101129.78;;;25.62;72.74
64095;BME280;50353;51.420;5.682;2023-08-24T11:08:00;101129.84;;;25.39;74.49
64095;BME280;50353;51.420;5.682;2023-08-24T11:10:32;101126.31;;;25.53;72.57
64095;BME280;50353;51.420;5.682;2023-08-24T11:15:33;101138.66;;;25.33;71.14
64095;BME280;50353;51.420;5.682;2023-08-24T11:18:12;101140.78;;;25.60;71.13
64095;BME280;50353;51.420;5.682;2023-08-24T11:20:39;101131.34;;;25.56;71.58
64095;BME280;50353;51.420;5.682;2023-08-24T11:23:07;101127.13;;;25.39;72.03
64095;BME280;50353;51.420;5.682;2023-08-24T11:25:35;101127.44;;;25.59;72.28
64095;BME280;50353;51.420;5.682;2023-08-24T11:28:03;101110.06;;;25.68;72.65
64095;BME280;50353;51.420;5.682;2023-08-24T11:30:28;101103.53;;;25.47;73.94
64095;BME280;50353;51.420;5.682;2023-08-24T11:32:54;101096.91;;;25.50;73.08
64095;BME280;50353;51.420;5.682;2023-08-24T11:35:19;101093.34;;;25.35;74.83
64095;BME280;50353;51.420;5.682;2023-08-24T11:37:54;101094.19;;;25.12;76.37
64095;BME280;50353;51.420;5.682;2023-08-24T11:40:19;101082.56;;;25.03;77.27
64095;BME280;50353;51.420;5.682;2023-08-24T11:42:48;101072.31;;;24.98;79.48
64095;BME280;50353;51.420;5.682;2023-08-24T11:45:18;101059.88;;;24.89;80.82
64095;BME280;50353;51.420;5.682;2023-08-24T11:47:43;101042.75;;;24.97;78.47
64095;BME280;50353;51.420;5.682;2023-08-24T11:50:09;101035.03;;;25.09;79.87
64095;BME280;50353;51.420;5.682;2023-08-24T11:52:41;101024.59;;;24.83;80.36
64095;BME280;50353;51.420;5.682;2023-08-24T11:55:07;101020.88;;;24.84;81.87
64095;BME280;50353;51.420;5.682;2023-08-24T11:57:34;101022.22;;;24.64;82.85
64095;BME280;50353;51.420;5.682;2023-08-24T12:00:00;101026.19;;;24.77;81.47
64095;BME280;50353;51.420;5.682;2023-08-24T12:02:26;101019.31;;;24.43;80.88
64095;BME280;50353;51.420;5.682;2023-08-24T12:04:51;100992.53;;;24.33;83.59
64095;BME280;50353;51.420;5.682;2023-08-24T12:07:16;100965.25;;;24.43;87.58
64095;BME280;50353;51.420;5.682;2023-08-24T12:09:43;100931.53;;;24.39;86.12
64095;BME280;50353;51.420;5.682;2023-08-24T12:12:13;100917.69;;;24.57;86.81
64095;BME280;50353;51.420;5.682;2023-08-24T12:14:40;100924.66;;;24.89;87.59
64095;BME280;50353;51.420;5.682;2023-08-24T12:17:09;100934.75;;;24.80;83.93
64095;BME280;50353;51.420;5.682;2023-08-24T12:19:34;100946.69;;;25.01;82.00
64095;BME280;50353;51.420;5.682;2023-08-24T12:22:00;100967.75;;;25.06;80.15
64095;BME280;50353;51.420;5.682;2023-08-24T12:24:25;100964.63;;;25.17;80.75
64095;BME280;50353;51.420;5.682;2023-08-24T12:26:57;100953.06;;;25.38;81.25
64095;BME280;50353;51.420;5.682;2023-08-24T12:29:28;100931.59;;;25.07;81.26
64095;BME280;50353;51.420;5.682;2023-08-24T12:31:57;100942.03;;;25.10;79.90
64095;BME280;50353;51.420;5.682;2023-08-24T12:34:23;100957.63;;;25.08;81.52
64095;BME280;50353;51.420;5.682;2023-08-24T12:36:48;100979.19;;;24.78;80.76
64095;BME280;50353;51.420;5.682;2023-08-24T12:39:14;100986.38;;;25.24;80.53
64095;BME280;50353;51.420;5.682;2023-08-24T12:41:40;100983.28;;;25.12;78.31
64095;BME280;50353;51.420;5.682;2023-08-24T12:44:05;100989.16;;;25.30;78.13
64095;BME280;50353;51.420;5.682;2023-08-24T12:46:32;100989.91;;;25.24;78.21
64095;BME280;50353;51.420;5.682;2023-08-24T12:48:58;100992.50;;;25.03;78.48
64095;BME280;50353;51.420;5.682;2023-08-24T12:51:23;100990.25;;;24.91;79.50
64095;BME280;50353;51.420;5.682;2023-08-24T12:53:51;100990.97;;;24.85;77.66
64095;BME280;50353;51.420;5.682;2023-08-24T12:56:17;100993.66;;;24.85;79.18